RAF1760 EFKT-EGNT
Flight info
| Callsign | RAF1760 |
|---|---|
| Flight time | N/A |
| Altitude | 38000 |
| Route | AMULU DCT NEBET DCT OSKIR DCT AGMOL DCT ATLEM DCT NOGBO DCT MIGVA DCT EDEXU DCT DEKEB DCT PENIP DCT TUTOP DCT IPTOK DCT ORVIK DCT BUDON DCT NEXUS DCT NATEB |
| Aircraft | A20N/M-SDE2E3FGHIRWXY/LB1 |
Departure
| Time | 2026-04-25 16:26 |
|---|---|
| Airport | Kittilä International Airport (EFKT) |
Arrival
| Time | N/A |
|---|---|
| Airport | Newcastle International Airport (EGNT) |
| Time | Latitude | Longitude | Altitude | Speed | Heading |
|---|---|---|---|---|---|
| 2026-04-25 16:08 | 67.69586 | 24.85665 | 639 ft | 0 kts | 77° |
| 2026-04-25 16:18 | 67.69586 | 24.85661 | 639 ft | 2 kts | 77° |
| 2026-04-25 16:18 | 67.69581 | 24.85610 | 641 ft | 2 kts | 77° |
| 2026-04-25 16:18 | 67.69578 | 24.85579 | 641 ft | 2 kts | 77° |
| 2026-04-25 16:19 | 67.69576 | 24.85548 | 643 ft | 2 kts | 77° |
| 2026-04-25 16:19 | 67.69573 | 24.85510 | 645 ft | 2 kts | 104° |
| 2026-04-25 16:19 | 67.69582 | 24.85478 | 644 ft | 2 kts | 165° |
| 2026-04-25 16:20 | 67.69591 | 24.85471 | 644 ft | 0 kts | 167° |
| 2026-04-25 16:23 | 67.69590 | 24.85472 | 642 ft | 1 kts | 168° |
| 2026-04-25 16:23 | 67.69557 | 24.85470 | 642 ft | 9 kts | 199° |
| 2026-04-25 16:23 | 67.69524 | 24.85344 | 645 ft | 0 kts | 253° |
| 2026-04-25 16:24 | 67.69518 | 24.85287 | 646 ft | 8 kts | 254° |
| 2026-04-25 16:24 | 67.69466 | 24.85113 | 646 ft | 17 kts | 184° |
| 2026-04-25 16:24 | 67.69315 | 24.85206 | 648 ft | 27 kts | 168° |
| 2026-04-25 16:24 | 67.69127 | 24.85355 | 651 ft | 25 kts | 144° |
| 2026-04-25 16:25 | 67.69055 | 24.85426 | 655 ft | 8 kts | 250° |
| 2026-04-25 16:25 | 67.69068 | 24.85360 | 653 ft | 6 kts | 332° |
| 2026-04-25 16:25 | 67.69296 | 24.85213 | 649 ft | 75 kts | 347° |
| 2026-04-25 16:25 | 67.70096 | 24.84703 | 668 ft | 155 kts | 348° |
| 2026-04-25 16:26 | 67.71214 | 24.83963 | 1386 ft | 170 kts | 348° |
| 2026-04-25 16:26 | 67.72352 | 24.83236 | 2751 ft | 169 kts | 347° |
| 2026-04-25 16:26 | 67.73541 | 24.82473 | 3612 ft | 187 kts | 347° |
| 2026-04-25 16:26 | 67.74863 | 24.81428 | 4390 ft | 209 kts | 334° |
| 2026-04-25 16:27 | 67.75952 | 24.78877 | 5497 ft | 218 kts | 305° |
| 2026-04-25 16:27 | 67.76398 | 24.75001 | 6665 ft | 229 kts | 274° |
| 2026-04-25 16:27 | 67.75990 | 24.70879 | 7815 ft | 241 kts | 242° |
| 2026-04-25 16:27 | 67.74795 | 24.67688 | 8951 ft | 252 kts | 212° |
| 2026-04-25 16:28 | 67.73104 | 24.66053 | 9860 ft | 271 kts | 193° |
| 2026-04-25 16:28 | 67.71183 | 24.65159 | 10645 ft | 286 kts | 190° |
| 2026-04-25 16:28 | 67.69210 | 24.64269 | 11727 ft | 290 kts | 192° |
| 2026-04-25 16:28 | 67.67214 | 24.63118 | 12680 ft | 301 kts | 196° |
| 2026-04-25 16:29 | 67.65124 | 24.61513 | 13179 ft | 325 kts | 200° |
| 2026-04-25 16:29 | 67.62899 | 24.59569 | 13605 ft | 349 kts | 201° |
| 2026-04-25 16:29 | 67.59350 | 24.56389 | 14813 ft | 360 kts | 201° |
| 2026-04-25 16:29 | 67.49642 | 24.47896 | 18482 ft | 376 kts | 201° |
| 2026-04-25 16:30 | 67.39510 | 24.39016 | 21328 ft | 397 kts | 207° |
| 2026-04-25 16:30 | 67.32468 | 24.27162 | 21905 ft | 435 kts | 221° |
| 2026-04-25 16:30 | 67.30022 | 24.22356 | 22072 ft | 449 kts | 221° |
| 2026-04-25 16:30 | 67.27485 | 24.17424 | 22273 ft | 460 kts | 221° |
| 2026-04-25 16:31 | 67.24910 | 24.12465 | 22754 ft | 463 kts | 221° |
| 2026-04-25 16:31 | 67.22309 | 24.07482 | 23277 ft | 466 kts | 221° |
| 2026-04-25 16:31 | 67.15250 | 23.94022 | 24068 ft | 473 kts | 221° |
| 2026-04-25 16:31 | 67.04680 | 23.73617 | 25151 ft | 472 kts | 226° |
| 2026-04-25 16:32 | 66.96345 | 23.48389 | 26338 ft | 463 kts | 237° |
| 2026-04-25 16:32 | 66.88414 | 23.22477 | 27584 ft | 462 kts | 237° |
| 2026-04-25 16:32 | 66.80464 | 22.96917 | 28797 ft | 461 kts | 237° |
| 2026-04-25 16:32 | 66.72473 | 22.71505 | 29967 ft | 461 kts | 237° |
| 2026-04-25 16:33 | 66.65268 | 22.48841 | 30862 ft | 464 kts | 236° |
| 2026-04-25 16:33 | 66.61203 | 22.36159 | 31408 ft | 466 kts | 236° |
| 2026-04-25 16:33 | 66.57114 | 22.23483 | 31946 ft | 467 kts | 236° |
| 2026-04-25 16:33 | 66.53002 | 22.10808 | 32470 ft | 469 kts | 236° |
| 2026-04-25 16:34 | 66.48872 | 21.98149 | 32987 ft | 470 kts | 236° |
| 2026-04-25 16:34 | 66.44713 | 21.85475 | 33495 ft | 471 kts | 235° |
| 2026-04-25 16:34 | 66.40546 | 21.72856 | 33968 ft | 471 kts | 235° |
| 2026-04-25 16:34 | 66.36344 | 21.60201 | 34393 ft | 472 kts | 235° |
| 2026-04-25 16:35 | 66.32200 | 21.47791 | 34787 ft | 472 kts | 235° |
| 2026-04-25 16:35 | 66.27932 | 21.35083 | 35177 ft | 473 kts | 234° |
| 2026-04-25 16:35 | 66.23701 | 21.22560 | 35563 ft | 473 kts | 234° |
| 2026-04-25 16:35 | 66.19459 | 21.10075 | 35922 ft | 474 kts | 234° |
| 2026-04-25 16:36 | 66.15260 | 20.97784 | 36269 ft | 474 kts | 234° |
| 2026-04-25 16:36 | 66.13817 | 20.93578 | 36379 ft | 475 kts | 234° |
| 2026-04-25 16:36 | 66.06690 | 20.72918 | 36930 ft | 475 kts | 234° |
| 2026-04-25 16:36 | 66.02397 | 20.60566 | 37233 ft | 476 kts | 233° |
| 2026-04-25 16:37 | 65.98081 | 20.48219 | 37536 ft | 476 kts | 233° |
| 2026-04-25 16:37 | 65.89428 | 20.23679 | 37634 ft | 475 kts | 233° |
| 2026-04-25 16:38 | 65.80750 | 19.99337 | 37631 ft | 475 kts | 233° |
| 2026-04-25 16:38 | 65.72037 | 19.75170 | 37639 ft | 474 kts | 233° |
| 2026-04-25 16:39 | 65.64713 | 19.49346 | 37635 ft | 464 kts | 249° |
| 2026-04-25 16:39 | 65.59358 | 19.20965 | 37634 ft | 463 kts | 249° |
| 2026-04-25 16:40 | 65.53903 | 18.92747 | 37638 ft | 463 kts | 248° |
| 2026-04-25 16:40 | 65.48402 | 18.64714 | 37662 ft | 462 kts | 248° |
| 2026-04-25 16:41 | 65.42858 | 18.36832 | 37688 ft | 462 kts | 248° |
| 2026-04-25 16:41 | 65.34444 | 17.95227 | 37699 ft | 461 kts | 248° |
| 2026-04-25 16:42 | 65.30333 | 17.75205 | 37702 ft | 451 kts | 247° |
| 2026-04-25 16:43 | 65.27830 | 17.63134 | 37713 ft | 430 kts | 248° |
| 2026-04-25 16:43 | 65.25172 | 17.50325 | 37711 ft | 438 kts | 247° |
| 2026-04-25 16:43 | 65.20336 | 17.27276 | 37727 ft | 436 kts | 247° |
| 2026-04-25 16:44 | 65.17609 | 17.14389 | 37721 ft | 435 kts | 247° |
| 2026-04-25 16:44 | 65.14877 | 17.01562 | 37738 ft | 434 kts | 247° |
| 2026-04-25 16:45 | 65.12131 | 16.88742 | 37729 ft | 434 kts | 247° |
| 2026-04-25 16:45 | 65.09385 | 16.76000 | 37741 ft | 433 kts | 247° |
| 2026-04-25 16:46 | 65.06623 | 16.63256 | 37968 ft | 442 kts | 246° |
| 2026-04-25 16:46 | 65.05210 | 16.56749 | 37752 ft | 454 kts | 246° |
| 2026-04-25 16:46 | 65.04722 | 16.54509 | 37746 ft | 456 kts | 246° |
| 2026-04-25 16:47 | 65.00786 | 16.36572 | 37749 ft | 462 kts | 246° |
| 2026-04-25 16:47 | 64.97813 | 16.23128 | 37755 ft | 462 kts | 246° |
| 2026-04-25 16:48 | 64.94822 | 16.09675 | 37754 ft | 462 kts | 246° |
| 2026-04-25 16:48 | 64.91824 | 15.96274 | 37761 ft | 462 kts | 246° |
| 2026-04-25 16:49 | 64.88809 | 15.82882 | 37766 ft | 462 kts | 246° |
| 2026-04-25 16:49 | 64.85801 | 15.69600 | 37766 ft | 463 kts | 246° |
| 2026-04-25 16:50 | 64.82759 | 15.56254 | 37770 ft | 463 kts | 245° |
| 2026-04-25 16:50 | 64.79702 | 15.42921 | 37778 ft | 463 kts | 245° |
| 2026-04-25 16:51 | 64.76639 | 15.29648 | 37779 ft | 463 kts | 245° |
| 2026-04-25 16:51 | 64.74582 | 15.20772 | 37782 ft | 463 kts | 245° |
| 2026-04-25 16:52 | 64.70344 | 15.03297 | 37786 ft | 465 kts | 243° |
| 2026-04-25 16:52 | 64.67022 | 14.90438 | 37798 ft | 464 kts | 243° |
| 2026-04-25 16:53 | 64.57286 | 14.52988 | 37801 ft | 465 kts | 243° |
| 2026-04-25 16:54 | 64.43771 | 14.01662 | 37820 ft | 465 kts | 245° |
| 2026-04-25 16:54 | 64.35153 | 13.64386 | 37847 ft | 463 kts | 250° |
| 2026-04-25 16:54 | 64.33807 | 13.57770 | 37598 ft | 442 kts | 248° |
| 2026-04-25 16:55 | 64.32523 | 13.51526 | 37843 ft | 423 kts | 248° |
| 2026-04-25 16:55 | 64.29853 | 13.39451 | 37857 ft | 431 kts | 239° |
| 2026-04-25 16:55 | 64.27913 | 13.34233 | 37860 ft | 438 kts | 227° |
| 2026-04-25 16:56 | 64.25462 | 13.29988 | 37865 ft | 446 kts | 214° |
| 2026-04-25 16:56 | 64.19730 | 13.24216 | 37940 ft | 451 kts | 206° |
| 2026-04-25 16:57 | 64.07952 | 13.10972 | 38092 ft | 448 kts | 213° |
| 2026-04-25 16:57 | 63.86042 | 12.83650 | 38138 ft | 450 kts | 213° |
| 2026-04-25 16:57 | 63.74980 | 12.70020 | 38028 ft | 451 kts | 213° |
| 2026-04-25 16:58 | 63.63950 | 12.56553 | 37911 ft | 451 kts | 213° |
| 2026-04-25 16:58 | 63.41964 | 12.30101 | 37940 ft | 450 kts | 213° |
| 2026-04-25 16:59 | 63.19777 | 12.03908 | 37947 ft | 452 kts | 213° |
| 2026-04-25 16:59 | 62.97755 | 11.75345 | 37982 ft | 472 kts | 215° |
| 2026-04-25 17:00 | 62.75296 | 11.45634 | 37991 ft | 471 kts | 215° |
| 2026-04-25 17:00 | 62.52866 | 11.16160 | 38003 ft | 470 kts | 215° |
| 2026-04-25 17:01 | 62.30593 | 10.87178 | 38006 ft | 471 kts | 215° |
| 2026-04-25 17:01 | 62.07962 | 10.58221 | 38014 ft | 470 kts | 215° |
| 2026-04-25 17:02 | 61.85579 | 10.29879 | 38011 ft | 471 kts | 214° |
| 2026-04-25 17:02 | 61.63030 | 10.01776 | 38010 ft | 469 kts | 214° |
| 2026-04-25 17:03 | 61.40389 | 9.74190 | 38005 ft | 470 kts | 214° |
| 2026-04-25 17:03 | 61.17701 | 9.47130 | 38008 ft | 469 kts | 214° |
| 2026-04-25 17:04 | 60.95016 | 9.20414 | 37996 ft | 469 kts | 214° |
| 2026-04-25 17:04 | 60.72504 | 8.94303 | 38002 ft | 466 kts | 214° |
| 2026-04-25 17:05 | 60.49869 | 8.68556 | 38009 ft | 465 kts | 214° |
| 2026-04-25 17:05 | 60.15805 | 8.30819 | 38021 ft | 465 kts | 214° |
| 2026-04-25 17:06 | 59.99825 | 8.13520 | 38037 ft | 465 kts | 213° |
| 2026-04-25 17:06 | 59.94183 | 8.07483 | 38030 ft | 465 kts | 213° |
| 2026-04-25 17:07 | 59.89447 | 8.02432 | 38026 ft | 465 kts | 213° |
| 2026-04-25 17:07 | 59.83728 | 7.96352 | 38028 ft | 466 kts | 213° |
| 2026-04-25 17:08 | 59.77083 | 7.89313 | 38023 ft | 465 kts | 213° |
| 2026-04-25 17:08 | 59.72286 | 7.84256 | 38025 ft | 467 kts | 213° |
| 2026-04-25 17:09 | 59.66547 | 7.78222 | 38025 ft | 466 kts | 213° |
| 2026-04-25 17:09 | 59.60876 | 7.72124 | 38046 ft | 465 kts | 216° |
| 2026-04-25 17:10 | 59.55428 | 7.65314 | 38024 ft | 464 kts | 218° |
| 2026-04-25 17:10 | 59.49984 | 7.58437 | 38033 ft | 465 kts | 218° |
| 2026-04-25 17:11 | 59.44573 | 7.51632 | 38035 ft | 464 kts | 218° |
| 2026-04-25 17:11 | 59.39111 | 7.44800 | 38039 ft | 466 kts | 218° |
| 2026-04-25 17:12 | 59.33641 | 7.37992 | 38039 ft | 466 kts | 218° |
| 2026-04-25 17:12 | 59.28302 | 7.31389 | 38036 ft | 466 kts | 218° |
| 2026-04-25 17:13 | 59.23872 | 7.25940 | 38042 ft | 466 kts | 218° |
| 2026-04-25 17:13 | 59.17461 | 7.18115 | 38047 ft | 467 kts | 218° |
| 2026-04-25 17:14 | 59.11937 | 7.11437 | 38041 ft | 467 kts | 218° |
| 2026-04-25 17:14 | 59.06407 | 7.04771 | 38046 ft | 468 kts | 218° |
| 2026-04-25 17:15 | 59.00871 | 6.98101 | 38045 ft | 468 kts | 218° |
| 2026-04-25 17:15 | 58.95319 | 6.91425 | 38042 ft | 469 kts | 218° |
| 2026-04-25 17:16 | 58.89817 | 6.84784 | 38041 ft | 467 kts | 221° |
| 2026-04-25 17:16 | 58.85133 | 6.76392 | 38309 ft | 463 kts | 235° |
| 2026-04-25 17:17 | 58.82765 | 6.71995 | 38035 ft | 478 kts | 233° |
| 2026-04-25 17:17 | 58.80324 | 6.67568 | 38048 ft | 485 kts | 233° |
| 2026-04-25 17:17 | 58.75391 | 6.58548 | 38052 ft | 493 kts | 233° |
| 2026-04-25 17:18 | 58.71001 | 6.48804 | 38066 ft | 471 kts | 247° |
| 2026-04-25 17:18 | 58.67495 | 6.38193 | 38059 ft | 468 kts | 248° |
| 2026-04-25 17:19 | 58.64128 | 6.27985 | 38072 ft | 470 kts | 248° |
| 2026-04-25 17:19 | 58.60635 | 6.17383 | 38076 ft | 469 kts | 248° |
| 2026-04-25 17:20 | 58.57275 | 6.06786 | 38079 ft | 460 kts | 254° |
| 2026-04-25 17:20 | 58.56149 | 6.01162 | 38091 ft | 445 kts | 265° |
| 2026-04-25 17:20 | 58.55498 | 5.95428 | 38091 ft | 440 kts | 268° |
| 2026-04-25 17:21 | 58.54277 | 5.83939 | 38096 ft | 440 kts | 268° |
| 2026-04-25 17:21 | 58.53080 | 5.72442 | 38101 ft | 440 kts | 268° |
| 2026-04-25 17:22 | 58.52086 | 5.62890 | 38107 ft | 440 kts | 268° |
| 2026-04-25 17:22 | 58.50670 | 5.49443 | 38117 ft | 441 kts | 268° |
| 2026-04-25 17:23 | 58.49449 | 5.38025 | 38125 ft | 442 kts | 268° |
| 2026-04-25 17:23 | 58.48205 | 5.26508 | 38132 ft | 442 kts | 267° |
| 2026-04-25 17:24 | 58.46949 | 5.14981 | 38150 ft | 443 kts | 267° |
| 2026-04-25 17:24 | 58.45690 | 5.03530 | 38148 ft | 443 kts | 267° |
| 2026-04-25 17:25 | 58.44416 | 4.92041 | 38167 ft | 444 kts | 266° |
| 2026-04-25 17:25 | 58.43126 | 4.80512 | 38172 ft | 444 kts | 266° |
| 2026-04-25 17:26 | 58.41611 | 4.67093 | 38172 ft | 445 kts | 266° |
| 2026-04-25 17:26 | 58.40345 | 4.55996 | 38181 ft | 445 kts | 266° |
| 2026-04-25 17:27 | 58.39020 | 4.44473 | 38180 ft | 445 kts | 265° |
| 2026-04-25 17:27 | 58.38135 | 4.36824 | 38189 ft | 446 kts | 265° |
| 2026-04-25 17:28 | 58.36341 | 4.21468 | 38189 ft | 446 kts | 265° |
| 2026-04-25 17:28 | 58.34981 | 4.09937 | 38198 ft | 446 kts | 265° |
| 2026-04-25 17:29 | 58.33608 | 3.98389 | 38201 ft | 447 kts | 265° |
| 2026-04-25 17:29 | 58.32223 | 3.86839 | 38213 ft | 448 kts | 264° |
| 2026-04-25 17:30 | 58.30835 | 3.75363 | 38210 ft | 448 kts | 264° |
| 2026-04-25 17:30 | 58.29429 | 3.63824 | 38216 ft | 449 kts | 264° |
| 2026-04-25 17:31 | 58.28010 | 3.52279 | 38218 ft | 449 kts | 264° |
| 2026-04-25 17:31 | 58.26616 | 3.41031 | 38223 ft | 449 kts | 263° |
| 2026-04-25 17:32 | 58.25174 | 3.29490 | 38230 ft | 450 kts | 263° |
| 2026-04-25 17:32 | 58.23718 | 3.17925 | 38233 ft | 450 kts | 263° |
| 2026-04-25 17:33 | 58.22280 | 3.06588 | 38235 ft | 450 kts | 263° |
| 2026-04-25 17:33 | 58.20811 | 2.95102 | 38231 ft | 451 kts | 262° |
| 2026-04-25 17:34 | 58.19321 | 2.83547 | 38230 ft | 451 kts | 262° |
| 2026-04-25 17:34 | 58.17821 | 2.71995 | 38229 ft | 451 kts | 262° |
| 2026-04-25 17:35 | 58.16307 | 2.60434 | 38232 ft | 452 kts | 262° |
| 2026-04-25 17:35 | 58.14779 | 2.48859 | 38240 ft | 453 kts | 261° |
| 2026-04-25 17:36 | 58.13243 | 2.37307 | 38242 ft | 453 kts | 261° |
| 2026-04-25 17:36 | 58.11692 | 2.25728 | 38242 ft | 454 kts | 261° |
| 2026-04-25 17:37 | 58.10163 | 2.14406 | 38248 ft | 454 kts | 261° |
| 2026-04-25 17:37 | 58.08590 | 2.02840 | 38246 ft | 454 kts | 261° |
| 2026-04-25 17:38 | 58.07550 | 1.95242 | 38250 ft | 455 kts | 260° |
| 2026-04-25 17:38 | 58.05434 | 1.79895 | 38253 ft | 456 kts | 260° |
| 2026-04-25 17:39 | 58.03822 | 1.68302 | 38261 ft | 456 kts | 259° |
| 2026-04-25 17:39 | 58.02206 | 1.56769 | 38261 ft | 457 kts | 259° |
| 2026-04-25 17:40 | 58.00616 | 1.45506 | 38263 ft | 457 kts | 259° |
| 2026-04-25 17:40 | 57.98969 | 1.33921 | 38266 ft | 458 kts | 259° |
| 2026-04-25 17:41 | 57.97347 | 1.22595 | 38266 ft | 458 kts | 259° |
| 2026-04-25 17:41 | 57.95698 | 1.11161 | 38270 ft | 459 kts | 258° |
| 2026-04-25 17:42 | 57.94030 | 0.99674 | 38270 ft | 459 kts | 258° |
| 2026-04-25 17:42 | 57.92358 | 0.88247 | 38289 ft | 460 kts | 258° |
| 2026-04-25 17:43 | 57.90655 | 0.76689 | 38277 ft | 460 kts | 257° |
| 2026-04-25 17:43 | 57.88933 | 0.65082 | 38270 ft | 460 kts | 257° |
| 2026-04-25 17:44 | 57.87202 | 0.53499 | 38282 ft | 461 kts | 257° |
| 2026-04-25 17:44 | 57.85456 | 0.41895 | 38276 ft | 461 kts | 257° |
| 2026-04-25 17:45 | 57.84293 | 0.34212 | 38277 ft | 462 kts | 257° |
| 2026-04-25 17:45 | 57.81927 | 0.18694 | 38276 ft | 462 kts | 256° |
| 2026-04-25 17:46 | 57.80158 | 0.07181 | 38281 ft | 462 kts | 256° |
| 2026-04-25 17:46 | 57.76333 | -0.17459 | 38283 ft | 463 kts | 256° |
| 2026-04-25 17:47 | 57.73543 | -0.35207 | 38283 ft | 463 kts | 255° |
| 2026-04-25 17:47 | 57.71613 | -0.46395 | 38161 ft | 464 kts | 246° |
| 2026-04-25 17:48 | 57.67958 | -0.56222 | 37891 ft | 465 kts | 226° |
| 2026-04-25 17:48 | 57.65474 | -0.60081 | 37779 ft | 465 kts | 214° |
| 2026-04-25 17:49 | 57.59754 | -0.65556 | 37615 ft | 464 kts | 206° |
| 2026-04-25 17:49 | 57.53989 | -0.70708 | 37450 ft | 463 kts | 206° |
| 2026-04-25 17:50 | 57.48375 | -0.75709 | 37174 ft | 460 kts | 206° |
| 2026-04-25 17:50 | 57.45514 | -0.78249 | 36895 ft | 450 kts | 206° |
| 2026-04-25 17:50 | 57.42720 | -0.80724 | 36641 ft | 441 kts | 206° |
| 2026-04-25 17:50 | 57.39960 | -0.83165 | 36384 ft | 442 kts | 206° |
| 2026-04-25 17:51 | 57.37175 | -0.85625 | 36128 ft | 445 kts | 206° |
| 2026-04-25 17:51 | 57.34378 | -0.88091 | 35872 ft | 444 kts | 206° |
| 2026-04-25 17:51 | 57.26841 | -0.94716 | 35197 ft | 442 kts | 206° |
| 2026-04-25 17:51 | 57.22889 | -0.98177 | 34848 ft | 442 kts | 206° |
| 2026-04-25 17:52 | 57.20106 | -1.00608 | 34591 ft | 442 kts | 206° |
| 2026-04-25 17:52 | 57.19165 | -1.01429 | 34459 ft | 442 kts | 206° |
| 2026-04-25 17:52 | 57.14697 | -1.05322 | 33613 ft | 442 kts | 206° |
| 2026-04-25 17:52 | 57.11966 | -1.07694 | 33084 ft | 443 kts | 206° |
| 2026-04-25 17:53 | 57.09172 | -1.10114 | 32555 ft | 444 kts | 206° |
| 2026-04-25 17:53 | 57.06370 | -1.12538 | 32051 ft | 445 kts | 206° |
| 2026-04-25 17:53 | 57.03594 | -1.14937 | 31543 ft | 446 kts | 206° |
| 2026-04-25 17:53 | 57.00783 | -1.17364 | 31047 ft | 447 kts | 206° |
| 2026-04-25 17:54 | 56.97967 | -1.19792 | 30558 ft | 446 kts | 206° |
| 2026-04-25 17:54 | 56.95169 | -1.22201 | 30026 ft | 443 kts | 206° |
| 2026-04-25 17:54 | 56.92391 | -1.24589 | 29461 ft | 438 kts | 206° |
| 2026-04-25 17:54 | 56.89637 | -1.26902 | 28909 ft | 434 kts | 205° |
| 2026-04-25 17:55 | 56.86905 | -1.29274 | 28366 ft | 430 kts | 208° |
| 2026-04-25 17:55 | 56.84358 | -1.31780 | 27842 ft | 427 kts | 210° |
| 2026-04-25 17:55 | 56.81765 | -1.34416 | 27313 ft | 424 kts | 210° |
| 2026-04-25 17:55 | 56.79195 | -1.37029 | 26808 ft | 421 kts | 210° |
| 2026-04-25 17:56 | 56.76646 | -1.39618 | 26306 ft | 418 kts | 210° |
| 2026-04-25 17:56 | 56.74108 | -1.42194 | 25722 ft | 416 kts | 210° |
| 2026-04-25 17:56 | 56.71590 | -1.44752 | 25130 ft | 411 kts | 210° |
| 2026-04-25 17:56 | 56.69109 | -1.47270 | 24536 ft | 406 kts | 210° |
| 2026-04-25 17:57 | 56.66716 | -1.49697 | 23969 ft | 405 kts | 210° |
| 2026-04-25 17:57 | 56.65087 | -1.51351 | 23535 ft | 403 kts | 210° |
| 2026-04-25 17:57 | 56.62652 | -1.53811 | 22851 ft | 398 kts | 210° |
| 2026-04-25 17:57 | 56.61055 | -1.55416 | 22419 ft | 395 kts | 210° |
| 2026-04-25 17:58 | 56.57163 | -1.59300 | 21358 ft | 390 kts | 210° |
| 2026-04-25 17:58 | 56.55582 | -1.60870 | 20932 ft | 389 kts | 210° |
| 2026-04-25 17:58 | 56.53198 | -1.63226 | 20468 ft | 381 kts | 210° |
| 2026-04-25 17:58 | 56.50868 | -1.65522 | 20316 ft | 383 kts | 210° |
| 2026-04-25 17:59 | 56.48550 | -1.67806 | 20288 ft | 384 kts | 210° |
| 2026-04-25 17:59 | 56.46201 | -1.70117 | 20287 ft | 384 kts | 210° |
| 2026-04-25 17:59 | 56.43850 | -1.72431 | 20289 ft | 384 kts | 210° |
| 2026-04-25 17:59 | 56.41502 | -1.74741 | 20285 ft | 384 kts | 210° |
| 2026-04-25 18:00 | 56.39156 | -1.77047 | 20288 ft | 384 kts | 210° |
| 2026-04-25 18:00 | 56.36811 | -1.79351 | 20285 ft | 383 kts | 210° |
| 2026-04-25 18:00 | 56.34471 | -1.81648 | 20288 ft | 383 kts | 210° |
| 2026-04-25 18:00 | 56.32129 | -1.83947 | 20288 ft | 383 kts | 210° |
| 2026-04-25 18:01 | 56.29787 | -1.86243 | 20285 ft | 383 kts | 210° |
| 2026-04-25 18:01 | 56.27447 | -1.88534 | 20287 ft | 383 kts | 210° |
| 2026-04-25 18:01 | 56.25097 | -1.90797 | 20280 ft | 383 kts | 207° |